sensor_id;sensor_type;location;lat;lon;timestamp;pressure;altitude;pressure_sealevel;temperature;humidity
73941;BME280;62294;48.554;10.202;2024-02-14T00:00:09;96552.50;;;-0.67;100.00
73941;BME280;62294;48.554;10.202;2024-02-14T00:02:44;96541.78;;;-0.74;100.00
73941;BME280;62294;48.554;10.202;2024-02-14T00:05:10;96550.03;;;-0.69;100.00
73941;BME280;62294;48.554;10.202;2024-02-14T00:07:38;96549.22;;;-0.69;100.00
73941;BME280;62294;48.554;10.202;2024-02-14T00:10:06;96547.84;;;-0.74;100.00
73941;BME280;62294;48.554;10.202;2024-02-14T00:12:33;96549.06;;;-0.78;100.00
73941;BME280;62294;48.554;10.202;2024-02-14T00:15:00;96548.25;;;-0.78;100.00
73941;BME280;62294;48.554;10.202;2024-02-14T00:17:27;96543.44;;;-0.83;100.00
73941;BME280;62294;48.554;10.202;2024-02-14T00:19:53;96551.69;;;-0.87;100.00
73941;BME280;62294;48.554;10.202;2024-02-14T00:22:20;96553.03;;;-0.93;100.00
73941;BME280;62294;48.554;10.202;2024-02-14T00:24:46;96542.06;;;-0.96;100.00
73941;BME280;62294;48.554;10.202;2024-02-14T00:27:13;96544.78;;;-0.98;100.00
73941;BME280;62294;48.554;10.202;2024-02-14T00:29:43;96553.03;;;-1.02;100.00
73941;BME280;62294;48.554;10.202;2024-02-14T00:32:14;96544.78;;;-0.98;100.00
73941;BME280;62294;48.554;10.202;2024-02-14T00:34:41;96545.34;;;-1.04;100.00
73941;BME280;62294;48.554;10.202;2024-02-14T00:37:08;96546.44;;;-1.06;100.00
73941;BME280;62294;48.554;10.202;2024-02-14T00:39:34;96544.09;;;-1.09;100.00
73941;BME280;62294;48.554;10.202;2024-02-14T00:42:01;96542.47;;;-1.10;100.00
73941;BME280;62294;48.554;10.202;2024-02-14T00:44:28;96543.97;;;-1.17;100.00
73941;BME280;62294;48.554;10.202;2024-02-14T00:46:56;96543.69;;;-1.24;100.00
73941;BME280;62294;48.554;10.202;2024-02-14T00:49:25;96546.69;;;-1.28;100.00
73941;BME280;62294;48.554;10.202;2024-02-14T00:51:52;96550.66;;;-1.24;100.00
73941;BME280;62294;48.554;10.202;2024-02-14T00:54:20;96545.16;;;-1.40;100.00
73941;BME280;62294;48.554;10.202;2024-02-14T00:56:46;96551.41;;;-1.53;100.00
73941;BME280;62294;48.554;10.202;2024-02-14T00:59:13;96548.13;;;-1.55;100.00
73941;BME280;62294;48.554;10.202;2024-02-14T01:01:39;96550.47;;;-1.52;100.00
73941;BME280;62294;48.554;10.202;2024-02-14T01:04:06;96540.19;;;-1.44;100.00
73941;BME280;62294;48.554;10.202;2024-02-14T01:06:33;96541.84;;;-1.42;100.00
73941;BME280;62294;48.554;10.202;2024-02-14T01:09:00;96532.09;;;-1.50;100.00
73941;BME280;62294;48.554;10.202;2024-02-14T01:11:27;96531.81;;;-1.47;100.00
73941;BME280;62294;48.554;10.202;2024-02-14T01:13:54;96519.22;;;-1.42;100.00
73941;BME280;62294;48.554;10.202;2024-02-14T01:16:21;96521.97;;;-1.34;100.00
73941;BME280;62294;48.554;10.202;2024-02-14T01:18:48;96523.22;;;-1.28;100.00
73941;BME280;62294;48.554;10.202;2024-02-14T01:21:14;96521.84;;;-1.23;100.00
73941;BME280;62294;48.554;10.202;2024-02-14T01:23:41;96521.34;;;-1.07;100.00
73941;BME280;62294;48.554;10.202;2024-02-14T01:26:07;96519.25;;;-1.04;100.00
73941;BME280;62294;48.554;10.202;2024-02-14T01:28:34;96519.53;;;-0.97;100.00
73941;BME280;62294;48.554;10.202;2024-02-14T01:31:01;96518.72;;;-0.98;100.00
73941;BME280;62294;48.554;10.202;2024-02-14T01:33:27;96514.75;;;-0.92;100.00
73941;BME280;62294;48.554;10.202;2024-02-14T01:35:57;96505.13;;;-1.01;100.00
73941;BME280;62294;48.554;10.202;2024-02-14T01:38:24;96502.50;;;-1.20;100.00
73941;BME280;62294;48.554;10.202;2024-02-14T01:40:50;96503.31;;;-1.29;100.00
73941;BME280;62294;48.554;10.202;2024-02-14T01:43:17;96498.94;;;-1.29;100.00
73941;BME280;62294;48.554;10.202;2024-02-14T01:45:43;96500.69;;;-1.29;100.00
73941;BME280;62294;48.554;10.202;2024-02-14T01:48:10;96506.91;;;-1.30;100.00
73941;BME280;62294;48.554;10.202;2024-02-14T01:50:37;96494.00;;;-1.22;100.00
73941;BME280;62294;48.554;10.202;2024-02-14T01:53:05;96494.41;;;-1.08;100.00
73941;BME280;62294;48.554;10.202;2024-02-14T01:55:31;96473.69;;;-1.19;100.00
73941;BME280;62294;48.554;10.202;2024-02-14T01:57:59;96475.59;;;-1.21;100.00
73941;BME280;62294;48.554;10.202;2024-02-14T02:00:26;96464.47;;;-1.13;100.00
73941;BME280;62294;48.554;10.202;2024-02-14T02:02:53;96463.66;;;-1.14;100.00
73941;BME280;62294;48.554;10.202;2024-02-14T02:05:22;96470.38;;;-1.11;100.00
73941;BME280;62294;48.554;10.202;2024-02-14T02:07:49;96469.84;;;-1.24;100.00
73941;BME280;62294;48.554;10.202;2024-02-14T02:10:16;96463.66;;;-1.23;100.00
73941;BME280;62294;48.554;10.202;2024-02-14T02:12:43;96463.94;;;-1.26;100.00
73941;BME280;62294;48.554;10.202;2024-02-14T02:15:10;96463.50;;;-1.31;100.00
73941;BME280;62294;48.554;10.202;2024-02-14T02:17:41;96456.78;;;-1.34;100.00
73941;BME280;62294;48.554;10.202;2024-02-14T02:20:09;96464.19;;;-1.29;100.00
73941;BME280;62294;48.554;10.202;2024-02-14T02:22:35;96457.47;;;-1.22;100.00
73941;BME280;62294;48.554;10.202;2024-02-14T02:25:05;96462.03;;;-1.05;100.00
73941;BME280;62294;48.554;10.202;2024-02-14T02:27:34;96464.06;;;-0.90;100.00
73941;BME280;62294;48.554;10.202;2024-02-14T02:30:07;96455.50;;;-0.73;100.00
73941;BME280;62294;48.554;10.202;2024-02-14T02:32:40;96443.72;;;-0.67;100.00
73941;BME280;62294;48.554;10.202;2024-02-14T02:35:07;96451.38;;;-0.56;100.00
73941;BME280;62294;48.554;10.202;2024-02-14T02:37:35;96438.31;;;-0.46;100.00
73941;BME280;62294;48.554;10.202;2024-02-14T02:40:02;96437.28;;;-0.36;100.00
73941;BME280;62294;48.554;10.202;2024-02-14T02:42:29;96444.69;;;0.06;100.00
73941;BME280;62294;48.554;10.202;2024-02-14T02:44:55;96443.72;;;0.34;100.00
73941;BME280;62294;48.554;10.202;2024-02-14T02:47:22;96437.47;;;0.44;100.00
73941;BME280;62294;48.554;10.202;2024-02-14T02:49:48;96447.41;;;0.41;100.00
73941;BME280;62294;48.554;10.202;2024-02-14T02:52:15;96450.75;;;0.33;100.00
73941;BME280;62294;48.554;10.202;2024-02-14T02:54:42;96455.13;;;0.33;100.00
73941;BME280;62294;48.554;10.202;2024-02-14T02:57:10;96451.56;;;0.34;100.00
73941;BME280;62294;48.554;10.202;2024-02-14T02:59:37;96449.63;;;0.36;100.00
73941;BME280;62294;48.554;10.202;2024-02-14T03:02:08;96438.97;;;0.47;100.00
73941;BME280;62294;48.554;10.202;2024-02-14T03:04:36;96436.41;;;0.55;100.00
73941;BME280;62294;48.554;10.202;2024-02-14T03:07:17;96439.41;;;0.60;100.00
73941;BME280;62294;48.554;10.202;2024-02-14T03:09:45;96442.13;;;0.68;100.00
73941;BME280;62294;48.554;10.202;2024-02-14T03:12:11;96439.19;;;0.71;100.00
73941;BME280;62294;48.554;10.202;2024-02-14T03:14:43;96441.00;;;0.70;100.00
73941;BME280;62294;48.554;10.202;2024-02-14T03:17:10;96432.00;;;0.73;100.00
73941;BME280;62294;48.554;10.202;2024-02-14T03:19:37;96434.78;;;0.71;100.00
73941;BME280;62294;48.554;10.202;2024-02-14T03:22:05;96429.50;;;0.81;100.00
73941;BME280;62294;48.554;10.202;2024-02-14T03:24:32;96426.19;;;0.79;100.00
73941;BME280;62294;48.554;10.202;2024-02-14T03:27:02;96419.69;;;0.83;100.00
73941;BME280;62294;48.554;10.202;2024-02-14T03:29:30;96416.41;;;0.81;100.00
73941;BME280;62294;48.554;10.202;2024-02-14T03:31:58;96421.19;;;0.86;100.00
73941;BME280;62294;48.554;10.202;2024-02-14T03:34:28;96425.69;;;0.93;100.00
73941;BME280;62294;48.554;10.202;2024-02-14T03:36:56;96414.66;;;1.07;100.00
73941;BME280;62294;48.554;10.202;2024-02-14T03:39:23;96413.78;;;0.99;100.00
73941;BME280;62294;48.554;10.202;2024-02-14T03:41:49;96418.41;;;1.05;100.00
73941;BME280;62294;48.554;10.202;2024-02-14T03:44:16;96411.31;;;0.97;100.00
73941;BME280;62294;48.554;10.202;2024-02-14T03:46:42;96424.41;;;0.97;100.00
73941;BME280;62294;48.554;10.202;2024-02-14T03:49:09;96424.22;;;0.99;100.00
73941;BME280;62294;48.554;10.202;2024-02-14T03:51:36;96422.53;;;0.90;100.00
73941;BME280;62294;48.554;10.202;2024-02-14T03:54:02;96438.22;;;0.90;100.00
73941;BME280;62294;48.554;10.202;2024-02-14T03:56:29;96444.91;;;0.84;100.00
73941;BME280;62294;48.554;10.202;2024-02-14T03:58:56;96439.13;;;0.81;100.00
73941;BME280;62294;48.554;10.202;2024-02-14T04:01:23;96439.50;;;0.86;100.00
73941;BME280;62294;48.554;10.202;2024-02-14T04:03:50;96432.16;;;0.89;100.00
73941;BME280;62294;48.554;10.202;2024-02-14T04:06:16;96426.81;;;0.91;100.00
73941;BME280;62294;48.554;10.202;2024-02-14T04:08:45;96410.47;;;0.97;100.00
73941;BME280;62294;48.554;10.202;2024-02-14T04:11:11;96411.06;;;1.08;100.00
73941;BME280;62294;48.554;10.202;2024-02-14T04:13:39;96407.72;;;0.98;100.00
73941;BME280;62294;48.554;10.202;2024-02-14T04:16:06;96420.78;;;0.98;100.00
73941;BME280;62294;48.554;10.202;2024-02-14T04:18:33;96410.69;;;1.03;100.00
73941;BME280;62294;48.554;10.202;2024-02-14T04:21:00;96408.34;;;0.75;100.00
73941;BME280;62294;48.554;10.202;2024-02-14T04:23:27;96420.22;;;0.87;100.00
73941;BME280;62294;48.554;10.202;2024-02-14T04:25:53;96414.88;;;1.14;100.00
73941;BME280;62294;48.554;10.202;2024-02-14T04:28:20;96419.97;;;1.15;100.00
73941;BME280;62294;48.554;10.202;2024-02-14T04:30:46;96432.75;;;1.18;100.00
73941;BME280;62294;48.554;10.202;2024-02-14T04:33:14;96430.34;;;1.07;100.00
73941;BME280;62294;48.554;10.202;2024-02-14T04:35:41;96448.00;;;1.05;100.00
73941;BME280;62294;48.554;10.202;2024-02-14T04:38:08;96457.59;;;0.97;100.00
73941;BME280;62294;48.554;10.202;2024-02-14T04:40:35;96457.09;;;0.93;100.00
73941;BME280;62294;48.554;10.202;2024-02-14T04:43:01;96442.72;;;0.97;100.00
73941;BME280;62294;48.554;10.202;2024-02-14T04:45:29;96445.56;;;1.04;100.00
73941;BME280;62294;48.554;10.202;2024-02-14T04:47:55;96448.25;;;1.12;100.00
73941;BME280;62294;48.554;10.202;2024-02-14T04:50:22;96435.66;;;1.15;100.00
73941;BME280;62294;48.554;10.202;2024-02-14T04:52:49;96436.25;;;1.27;100.00
73941;BME280;62294;48.554;10.202;2024-02-14T04:55:15;96427.94;;;1.31;100.00
73941;BME280;62294;48.554;10.202;2024-02-14T04:57:42;96421.41;;;1.35;100.00
73941;BME280;62294;48.554;10.202;2024-02-14T05:00:10;96421.41;;;1.35;100.00
73941;BME280;62294;48.554;10.202;2024-02-14T05:02:37;96422.59;;;1.41;100.00
73941;BME280;62294;48.554;10.202;2024-02-14T05:05:04;96412.03;;;1.51;100.00
73941;BME280;62294;48.554;10.202;2024-02-14T05:07:32;96409.75;;;1.56;100.00
73941;BME280;62294;48.554;10.202;2024-02-14T05:10:00;96398.16;;;1.58;100.00
73941;BME280;62294;48.554;10.202;2024-02-14T05:12:27;96409.94;;;1.62;100.00
73941;BME280;62294;48.554;10.202;2024-02-14T05:14:54;96402.31;;;1.69;100.00
73941;BME280;62294;48.554;10.202;2024-02-14T05:17:20;96391.09;;;1.84;100.00
73941;BME280;62294;48.554;10.202;2024-02-14T05:19:47;96388.00;;;1.89;100.00
73941;BME280;62294;48.554;10.202;2024-02-14T05:22:14;96378.84;;;1.93;100.00
73941;BME280;62294;48.554;10.202;2024-02-14T05:24:41;96383.78;;;2.04;100.00
73941;BME280;62294;48.554;10.202;2024-02-14T05:27:07;96397.19;;;2.01;100.00
73941;BME280;62294;48.554;10.202;2024-02-14T05:29:34;96398.56;;;2.13;100.00
73941;BME280;62294;48.554;10.202;2024-02-14T05:32:02;96410.88;;;1.79;100.00
73941;BME280;62294;48.554;10.202;2024-02-14T05:34:29;96414.78;;;1.75;100.00
73941;BME280;62294;48.554;10.202;2024-02-14T05:36:55;96408.41;;;1.77;100.00
73941;BME280;62294;48.554;10.202;2024-02-14T05:39:22;96419.91;;;1.84;100.00
73941;BME280;62294;48.554;10.202;2024-02-14T05:41:49;96420.41;;;1.88;100.00
73941;BME280;62294;48.554;10.202;2024-02-14T05:44:15;96425.66;;;1.88;100.00
73941;BME280;62294;48.554;10.202;2024-02-14T05:46:42;96421.34;;;1.79;100.00
73941;BME280;62294;48.554;10.202;2024-02-14T05:49:09;96429.28;;;1.95;100.00
73941;BME280;62294;48.554;10.202;2024-02-14T05:51:36;96427.06;;;2.08;100.00
73941;BME280;62294;48.554;10.202;2024-02-14T05:54:02;96450.38;;;2.19;100.00
73941;BME280;62294;48.554;10.202;2024-02-14T05:56:29;96457.94;;;2.22;100.00
73941;BME280;62294;48.554;10.202;2024-02-14T05:58:56;96469.06;;;2.24;100.00
73941;BME280;62294;48.554;10.202;2024-02-14T06:01:24;96477.94;;;2.23;100.00
73941;BME280;62294;48.554;10.202;2024-02-14T06:03:50;96477.81;;;2.33;100.00
73941;BME280;62294;48.554;10.202;2024-02-14T06:06:17;96474.31;;;2.24;100.00
73941;BME280;62294;48.554;10.202;2024-02-14T06:08:44;96485.53;;;2.34;100.00
73941;BME280;62294;48.554;10.202;2024-02-14T06:11:10;96494.34;;;2.25;100.00
73941;BME280;62294;48.554;10.202;2024-02-14T06:13:38;96494.34;;;2.25;100.00
73941;BME280;62294;48.554;10.202;2024-02-14T06:16:07;96494.06;;;2.36;100.00
73941;BME280;62294;48.554;10.202;2024-02-14T06:18:34;96488.16;;;2.34;100.00
73941;BME280;62294;48.554;10.202;2024-02-14T06:21:02;96502.59;;;2.38;100.00
73941;BME280;62294;48.554;10.202;2024-02-14T06:23:29;96499.97;;;2.38;100.00
73941;BME280;62294;48.554;10.202;2024-02-14T06:25:55;96501.63;;;2.47;100.00
73941;BME280;62294;48.554;10.202;2024-02-14T06:28:22;96497.72;;;2.51;100.00
73941;BME280;62294;48.554;10.202;2024-02-14T06:30:48;96488.41;;;2.65;100.00
73941;BME280;62294;48.554;10.202;2024-02-14T06:33:15;96486.66;;;2.73;100.00
73941;BME280;62294;48.554;10.202;2024-02-14T06:35:42;96488.28;;;2.66;100.00
73941;BME280;62294;48.554;10.202;2024-02-14T06:38:08;96482.41;;;2.80;100.00
73941;BME280;62294;48.554;10.202;2024-02-14T06:40:35;96486.66;;;2.73;100.00
73941;BME280;62294;48.554;10.202;2024-02-14T06:43:02;96497.09;;;2.65;100.00
73941;BME280;62294;48.554;10.202;2024-02-14T06:45:29;96497.28;;;2.64;100.00
73941;BME280;62294;48.554;10.202;2024-02-14T06:47:55;96503.53;;;2.71;100.00
73941;BME280;62294;48.554;10.202;2024-02-14T06:50:22;96497.16;;;2.73;100.00
73941;BME280;62294;48.554;10.202;2024-02-14T06:52:52;96511.28;;;2.80;100.00
73941;BME280;62294;48.554;10.202;2024-02-14T06:55:19;96512.06;;;2.81;100.00
73941;BME280;62294;48.554;10.202;2024-02-14T06:57:45;96506.53;;;2.92;100.00
73941;BME280;62294;48.554;10.202;2024-02-14T07:00:12;96512.13;;;2.89;100.00
73941;BME280;62294;48.554;10.202;2024-02-14T07:02:39;96503.75;;;2.94;100.00
73941;BME280;62294;48.554;10.202;2024-02-14T07:05:06;96507.88;;;2.96;100.00
73941;BME280;62294;48.554;10.202;2024-02-14T07:07:34;96504.41;;;3.04;100.00
73941;BME280;62294;48.554;10.202;2024-02-14T07:10:01;96515.56;;;2.98;100.00
73941;BME280;62294;48.554;10.202;2024-02-14T07:12:27;96519.66;;;2.92;100.00
73941;BME280;62294;48.554;10.202;2024-02-14T07:14:56;96510.97;;;2.92;100.00
73941;BME280;62294;48.554;10.202;2024-02-14T07:17:23;96528.34;;;2.93;100.00
73941;BME280;62294;48.554;10.202;2024-02-14T07:19:50;96532.94;;;2.82;100.00
73941;BME280;62294;48.554;10.202;2024-02-14T07:22:17;96548.34;;;2.85;100.00
73941;BME280;62294;48.554;10.202;2024-02-14T07:24:45;96551.63;;;2.87;100.00
73941;BME280;62294;48.554;10.202;2024-02-14T07:27:14;96545.09;;;2.92;100.00
73941;BME280;62294;48.554;10.202;2024-02-14T07:29:41;96547.59;;;3.01;100.00
73941;BME280;62294;48.554;10.202;2024-02-14T07:32:08;96546.28;;;3.05;100.00
73941;BME280;62294;48.554;10.202;2024-02-14T07:34:34;96528.25;;;3.10;100.00
73941;BME280;62294;48.554;10.202;2024-02-14T07:37:01;96545.66;;;3.27;100.00
73941;BME280;62294;48.554;10.202;2024-02-14T07:39:27;96549.97;;;3.69;100.00
73941;BME280;62294;48.554;10.202;2024-02-14T07:41:54;96548.50;;;3.98;100.00
73941;BME280;62294;48.554;10.202;2024-02-14T07:44:23;96536.78;;;4.09;100.00
73941;BME280;62294;48.554;10.202;2024-02-14T07:46:49;96540.94;;;4.03;100.00
73941;BME280;62294;48.554;10.202;2024-02-14T07:49:16;96530.06;;;4.06;100.00
73941;BME280;62294;48.554;10.202;2024-02-14T07:51:43;96532.38;;;4.01;100.00
73941;BME280;62294;48.554;10.202;2024-02-14T07:54:10;96544.56;;;3.94;100.00
73941;BME280;62294;48.554;10.202;2024-02-14T07:56:37;96538.63;;;4.08;100.00
73941;BME280;62294;48.554;10.202;2024-02-14T07:59:03;96546.97;;;4.04;100.00
73941;BME280;62294;48.554;10.202;2024-02-14T08:01:31;96546.50;;;4.00;100.00
73941;BME280;62294;48.554;10.202;2024-02-14T08:03:58;96552.25;;;3.96;100.00
73941;BME280;62294;48.554;10.202;2024-02-14T08:06:25;96552.41;;;4.02;100.00
73941;BME280;62294;48.554;10.202;2024-02-14T08:08:52;96548.31;;;4.08;100.00
73941;BME280;62294;48.554;10.202;2024-02-14T08:11:23;96556.81;;;4.18;100.00
73941;BME280;62294;48.554;10.202;2024-02-14T08:13:50;96554.84;;;4.20;100.00
73941;BME280;62294;48.554;10.202;2024-02-14T08:16:17;96561.94;;;4.19;100.00
73941;BME280;62294;48.554;10.202;2024-02-14T08:18:43;96558.94;;;4.39;100.00
73941;BME280;62294;48.554;10.202;2024-02-14T08:21:10;96558.94;;;4.39;100.00
73941;BME280;62294;48.554;10.202;2024-02-14T08:23:38;96551.72;;;4.24;100.00
73941;BME280;62294;48.554;10.202;2024-02-14T08:26:06;96546.44;;;4.32;100.00
73941;BME280;62294;48.554;10.202;2024-02-14T08:28:37;96536.91;;;4.40;100.00
73941;BME280;62294;48.554;10.202;2024-02-14T08:31:11;96544.66;;;4.33;100.00
73941;BME280;62294;48.554;10.202;2024-02-14T08:33:38;96549.41;;;4.38;100.00
73941;BME280;62294;48.554;10.202;2024-02-14T08:36:05;96559.94;;;4.38;100.00
73941;BME280;62294;48.554;10.202;2024-02-14T08:38:33;96561.88;;;4.44;100.00
73941;BME280;62294;48.554;10.202;2024-02-14T08:41:02;96553.66;;;4.47;100.00
73941;BME280;62294;48.554;10.202;2024-02-14T08:43:29;96564.84;;;4.49;100.00
73941;BME280;62294;48.554;10.202;2024-02-14T08:45:57;96559.72;;;4.55;100.00
73941;BME280;62294;48.554;10.202;2024-02-14T08:48:23;96567.75;;;4.62;100.00
73941;BME280;62294;48.554;10.202;2024-02-14T08:50:50;96566.72;;;4.79;100.00
73941;BME280;62294;48.554;10.202;2024-02-14T08:53:17;96556.84;;;4.73;100.00
73941;BME280;62294;48.554;10.202;2024-02-14T08:55:43;96567.69;;;4.78;100.00
73941;BME280;62294;48.554;10.202;2024-02-14T08:58:10;96563.69;;;4.90;100.00
73941;BME280;62294;48.554;10.202;2024-02-14T09:00:37;96553.13;;;4.98;100.00
73941;BME280;62294;48.554;10.202;2024-02-14T09:03:05;96561.94;;;5.13;100.00
73941;BME280;62294;48.554;10.202;2024-02-14T09:05:32;96555.53;;;5.38;100.00
73941;BME280;62294;48.554;10.202;2024-02-14T09:07:59;96544.69;;;5.33;100.00
73941;BME280;62294;48.554;10.202;2024-02-14T09:10:26;96565.25;;;5.38;100.00
73941;BME280;62294;48.554;10.202;2024-02-14T09:12:53;96573.22;;;5.52;100.00
73941;BME280;62294;48.554;10.202;2024-02-14T09:15:20;96562.81;;;5.59;100.00
73941;BME280;62294;48.554;10.202;2024-02-14T09:17:47;96574.44;;;5.72;100.00
73941;BME280;62294;48.554;10.202;2024-02-14T09:20:14;96565.75;;;5.87;100.00
73941;BME280;62294;48.554;10.202;2024-02-14T09:22:41;96556.72;;;6.04;100.00
73941;BME280;62294;48.554;10.202;2024-02-14T09:25:08;96571.19;;;6.08;100.00
73941;BME280;62294;48.554;10.202;2024-02-14T09:27:37;96563.94;;;5.87;100.00
73941;BME280;62294;48.554;10.202;2024-02-14T09:30:04;96559.78;;;5.93;100.00
73941;BME280;62294;48.554;10.202;2024-02-14T09:32:33;96569.81;;;6.12;100.00
73941;BME280;62294;48.554;10.202;2024-02-14T09:35:00;96571.13;;;6.16;100.00
73941;BME280;62294;48.554;10.202;2024-02-14T09:37:27;96576.31;;;6.24;100.00
73941;BME280;62294;48.554;10.202;2024-02-14T09:39:54;96576.25;;;6.32;100.00
73941;BME280;62294;48.554;10.202;2024-02-14T09:42:50;96575.81;;;6.58;100.00
73941;BME280;62294;48.554;10.202;2024-02-14T09:45:14;96578.81;;;6.69;100.00
73941;BME280;62294;48.554;10.202;2024-02-14T09:47:48;96584.19;;;6.90;100.00
73941;BME280;62294;48.554;10.202;2024-02-14T09:50:15;96581.88;;;7.16;100.00
73941;BME280;62294;48.554;10.202;2024-02-14T09:52:43;96590.00;;;7.15;100.00
73941;BME280;62294;48.554;10.202;2024-02-14T09:55:11;96584.09;;;7.13;100.00
73941;BME280;62294;48.554;10.202;2024-02-14T09:57:41;96588.34;;;7.29;100.00
73941;BME280;62294;48.554;10.202;2024-02-14T10:00:10;96600.78;;;6.99;100.00
73941;BME280;62294;48.554;10.202;2024-02-14T10:02:37;96596.53;;;7.34;100.00
73941;BME280;62294;48.554;10.202;2024-02-14T10:05:04;96599.25;;;7.40;100.00
73941;BME280;62294;48.554;10.202;2024-02-14T10:07:42;96598.13;;;7.85;100.00
73941;BME280;62294;48.554;10.202;2024-02-14T10:10:10;96600.88;;;8.19;100.00
73941;BME280;62294;48.554;10.202;2024-02-14T10:12:37;96601.63;;;8.55;100.00
73941;BME280;62294;48.554;10.202;2024-02-14T10:15:05;96615.53;;;8.92;100.00
73941;BME280;62294;48.554;10.202;2024-02-14T10:17:35;96616.88;;;8.81;100.00
73941;BME280;62294;48.554;10.202;2024-02-14T10:20:02;96622.75;;;8.77;100.00
73941;BME280;62294;48.554;10.202;2024-02-14T10:22:34;96620.56;;;9.14;100.00
73941;BME280;62294;48.554;10.202;2024-02-14T10:25:05;96621.88;;;8.97;100.00
73941;BME280;62294;48.554;10.202;2024-02-14T10:27:39;96611.69;;;8.94;100.00
73941;BME280;62294;48.554;10.202;2024-02-14T10:30:08;96610.94;;;9.13;100.00
73941;BME280;62294;48.554;10.202;2024-02-14T10:32:37;96609.06;;;9.48;100.00
73941;BME280;62294;48.554;10.202;2024-02-14T10:35:05;96614.41;;;9.61;100.00
73941;BME280;62294;48.554;10.202;2024-02-14T10:37:35;96596.44;;;9.57;100.00
73941;BME280;62294;48.554;10.202;2024-02-14T10:40:05;96589.44;;;9.36;100.00
73941;BME280;62294;48.554;10.202;2024-02-14T10:42:33;96591.59;;;9.73;100.00
73941;BME280;62294;48.554;10.202;2024-02-14T10:45:00;96595.72;;;10.09;100.00
73941;BME280;62294;48.554;10.202;2024-02-14T10:47:32;96572.59;;;9.70;100.00
73941;BME280;62294;48.554;10.202;2024-02-14T10:50:03;96581.72;;;9.54;100.00
73941;BME280;62294;48.554;10.202;2024-02-14T10:52:34;96566.94;;;9.19;100.00
73941;BME280;62294;48.554;10.202;2024-02-14T10:55:04;96563.25;;;9.26;100.00
73941;BME280;62294;48.554;10.202;2024-02-14T10:57:32;96560.25;;;9.36;100.00
73941;BME280;62294;48.554;10.202;2024-02-14T11:00:02;96557.31;;;9.78;100.00
73941;BME280;62294;48.554;10.202;2024-02-14T11:02:30;96551.78;;;9.73;100.00
73941;BME280;62294;48.554;10.202;2024-02-14T11:04:58;96542.63;;;9.95;100.00
73941;BME280;62294;48.554;10.202;2024-02-14T11:07:27;96535.72;;;10.21;100.00
73941;BME280;62294;48.554;10.202;2024-02-14T11:10:04;96530.41;;;10.47;100.00
73941;BME280;62294;48.554;10.202;2024-02-14T11:12:36;96532.25;;;10.40;100.00
73941;BME280;62294;48.554;10.202;2024-02-14T11:15:22;96537.75;;;10.45;100.00
73941;BME280;62294;48.554;10.202;2024-02-14T11:17:49;96530.59;;;10.39;100.00
73941;BME280;62294;48.554;10.202;2024-02-14T11:20:19;96531.59;;;10.57;100.00
73941;BME280;62294;48.554;10.202;2024-02-14T11:22:57;96536.53;;;10.54;100.00
73941;BME280;62294;48.554;10.202;2024-02-14T11:25:29;96525.88;;;10.67;100.00
73941;BME280;62294;48.554;10.202;2024-02-14T11:28:00;96521.63;;;10.40;100.00
73941;BME280;62294;48.554;10.202;2024-02-14T11:30:29;96528.78;;;10.26;100.00
73941;BME280;62294;48.554;10.202;2024-02-14T11:33:20;96519.34;;;10.63;100.00
73941;BME280;62294;48.554;10.202;2024-02-14T11:35:49;96516.19;;;10.92;100.00
73941;BME280;62294;48.554;10.202;2024-02-14T11:38:18;96520.50;;;10.80;100.00
73941;BME280;62294;48.554;10.202;2024-02-14T11:40:45;96520.53;;;10.67;100.00
73941;BME280;62294;48.554;10.202;2024-02-14T11:43:17;96515.19;;;10.80;100.00
73941;BME280;62294;48.554;10.202;2024-02-14T11:45:45;96520.91;;;10.90;100.00
73941;BME280;62294;48.554;10.202;2024-02-14T11:48:13;96506.81;;;11.27;100.00
73941;BME280;62294;48.554;10.202;2024-02-14T11:50:40;96502.44;;;11.02;100.00
73941;BME280;62294;48.554;10.202;2024-02-14T11:53:07;96508.00;;;10.87;100.00
73941;BME280;62294;48.554;10.202;2024-02-14T11:55:37;96498.75;;;11.03;100.00
73941;BME280;62294;48.554;10.202;2024-02-14T11:58:10;96495.59;;;11.19;100.00
73941;BME280;62294;48.554;10.202;2024-02-14T12:00:38;96506.09;;;11.52;100.00
73941;BME280;62294;48.554;10.202;2024-02-14T12:03:12;96507.78;;;11.39;100.00
73941;BME280;62294;48.554;10.202;2024-02-14T12:05:39;96501.72;;;11.26;100.00
73941;BME280;62294;48.554;10.202;2024-02-14T12:08:08;96503.75;;;11.30;100.00
73941;BME280;62294;48.554;10.202;2024-02-14T12:10:36;96505.75;;;10.97;100.00
73941;BME280;62294;48.554;10.202;2024-02-14T12:13:09;96503.72;;;10.93;100.00
73941;BME280;62294;48.554;10.202;2024-02-14T12:18:05;96501.03;;;10.86;100.00
73941;BME280;62294;48.554;10.202;2024-02-14T12:20:33;96489.81;;;10.84;100.00
73941;BME280;62294;48.554;10.202;2024-02-14T12:23:00;96503.56;;;10.68;100.00
73941;BME280;62294;48.554;10.202;2024-02-14T12:25:27;96500.09;;;10.61;100.00
73941;BME280;62294;48.554;10.202;2024-02-14T12:27:53;96494.78;;;10.61;100.00
73941;BME280;62294;48.554;10.202;2024-02-14T12:30:20;96491.50;;;10.72;100.00
73941;BME280;62294;48.554;10.202;2024-02-14T12:32:46;96497.63;;;10.79;100.00
73941;BME280;62294;48.554;10.202;2024-02-14T12:35:25;96493.22;;;11.04;100.00
73941;BME280;62294;48.554;10.202;2024-02-14T12:37:52;96493.41;;;11.09;100.00
73941;BME280;62294;48.554;10.202;2024-02-14T12:40:20;96495.44;;;11.07;100.00
73941;BME280;62294;48.554;10.202;2024-02-14T12:42:46;96503.63;;;11.12;100.00
73941;BME280;62294;48.554;10.202;2024-02-14T12:45:13;96508.31;;;11.17;100.00
73941;BME280;62294;48.554;10.202;2024-02-14T12:47:41;96506.72;;;11.03;100.00
73941;BME280;62294;48.554;10.202;2024-02-14T12:50:10;96505.50;;;11.05;100.00